N423CL KLXV-KLXV
Flight info
| Callsign | N423CL |
|---|---|
| Flight time | 1h 15m |
| Altitude | FL135 |
| Route | KEGE KGWS KASE |
| Aircraft | C172/L-VGD/C |
Departure
| Time | 2026-04-22 00:13 |
|---|---|
| Airport | Lake County Airport (KLXV) |
Arrival
| Time | 2026-04-22 01:29 |
|---|---|
| Airport | Lake County Airport (KLXV) |
| Time | Latitude | Longitude | Altitude | Speed | Heading |
|---|---|---|---|---|---|
| 2026-04-21 23:39 | 39.22569 | -106.31629 | 10043 ft | 0 kts | 81° |
| 2026-04-21 23:57 | 39.22560 | -106.31616 | 10038 ft | 3 kts | 185° |
| 2026-04-21 23:57 | 39.22542 | -106.31613 | 10038 ft | 6 kts | 165° |
| 2026-04-21 23:57 | 39.22504 | -106.31626 | 10038 ft | 9 kts | 234° |
| 2026-04-21 23:58 | 39.22483 | -106.31723 | 10037 ft | 11 kts | 252° |
| 2026-04-21 23:58 | 39.22412 | -106.31747 | 10038 ft | 14 kts | 171° |
| 2026-04-21 23:58 | 39.22290 | -106.31719 | 10039 ft | 21 kts | 172° |
| 2026-04-21 23:58 | 39.22140 | -106.31690 | 10039 ft | 22 kts | 176° |
| 2026-04-21 23:59 | 39.21991 | -106.31653 | 10040 ft | 22 kts | 166° |
| 2026-04-21 23:59 | 39.21844 | -106.31620 | 10039 ft | 21 kts | 173° |
| 2026-04-21 23:59 | 39.21698 | -106.31592 | 10036 ft | 21 kts | 169° |
| 2026-04-21 23:59 | 39.21548 | -106.31565 | 10034 ft | 22 kts | 162° |
| 2026-04-22 00:00 | 39.21398 | -106.31520 | 10030 ft | 21 kts | 171° |
| 2026-04-22 00:00 | 39.21265 | -106.31496 | 10027 ft | 18 kts | 170° |
| 2026-04-22 00:00 | 39.21167 | -106.31451 | 10024 ft | 12 kts | 98° |
| 2026-04-22 00:00 | 39.21162 | -106.31381 | 10024 ft | 0 kts | 141° |
| 2026-04-22 00:01 | 39.21156 | -106.31375 | 10024 ft | 3 kts | 137° |
| 2026-04-22 00:01 | 39.21146 | -106.31364 | 10023 ft | 7 kts | 148° |
| 2026-04-22 00:01 | 39.21134 | -106.31358 | 10023 ft | 0 kts | 165° |
| 2026-04-22 00:01 | 39.21127 | -106.31357 | 10022 ft | 4 kts | 179° |
| 2026-04-22 00:02 | 39.21122 | -106.31357 | 10022 ft | 0 kts | 175° |
| 2026-04-22 00:04 | 39.21120 | -106.31357 | 10027 ft | 0 kts | 178° |
| 2026-04-22 00:05 | 39.21119 | -106.31357 | 10027 ft | 0 kts | 181° |
| 2026-04-22 00:07 | 39.21118 | -106.31357 | 10027 ft | 2 kts | 180° |
| 2026-04-22 00:07 | 39.21105 | -106.31360 | 10026 ft | 1 kts | 207° |
| 2026-04-22 00:09 | 39.21096 | -106.31375 | 10027 ft | 3 kts | 256° |
| 2026-04-22 00:09 | 39.21096 | -106.31381 | 10027 ft | 1 kts | 259° |
| 2026-04-22 00:10 | 39.21087 | -106.31444 | 10027 ft | 9 kts | 263° |
| 2026-04-22 00:10 | 39.21110 | -106.31464 | 10028 ft | 0 kts | 346° |
| 2026-04-22 00:11 | 39.21251 | -106.31500 | 10032 ft | 43 kts | 350° |
| 2026-04-22 00:11 | 39.21658 | -106.31584 | 10042 ft | 74 kts | 347° |
| 2026-04-22 00:12 | 39.22245 | -106.31707 | 10047 ft | 96 kts | 350° |
| 2026-04-22 00:12 | 39.22907 | -106.31847 | 10115 ft | 97 kts | 346° |
| 2026-04-22 00:12 | 39.23558 | -106.31993 | 10191 ft | 97 kts | 347° |
| 2026-04-22 00:12 | 39.24184 | -106.32286 | 10199 ft | 97 kts | 304° |
| 2026-04-22 00:13 | 39.24412 | -106.32961 | 10288 ft | 80 kts | 261° |
| 2026-04-22 00:13 | 39.24153 | -106.33486 | 10425 ft | 63 kts | 202° |
| 2026-04-22 00:13 | 39.23700 | -106.33611 | 10494 ft | 65 kts | 188° |
| 2026-04-22 00:13 | 39.23252 | -106.33368 | 10533 ft | 78 kts | 135° |
| 2026-04-22 00:14 | 39.23118 | -106.32684 | 10672 ft | 84 kts | 84° |
| 2026-04-22 00:14 | 39.23227 | -106.31959 | 10770 ft | 80 kts | 85° |
| 2026-04-22 00:14 | 39.23211 | -106.31280 | 10853 ft | 71 kts | 108° |
| 2026-04-22 00:14 | 39.23028 | -106.30717 | 10873 ft | 71 kts | 134° |
| 2026-04-22 00:15 | 39.22544 | -106.30446 | 10759 ft | 85 kts | 183° |
| 2026-04-22 00:15 | 39.21997 | -106.30587 | 11042 ft | 53 kts | 168° |
| 2026-04-22 00:15 | 39.21612 | -106.30380 | 10885 ft | 84 kts | 160° |
| 2026-04-22 00:15 | 39.21033 | -106.30307 | 10879 ft | 89 kts | 198° |
| 2026-04-22 00:16 | 39.20425 | -106.30534 | 10890 ft | 93 kts | 199° |
| 2026-04-22 00:16 | 39.19794 | -106.30773 | 10975 ft | 92 kts | 195° |
| 2026-04-22 00:16 | 39.19292 | -106.30682 | 11262 ft | 72 kts | 148° |
| 2026-04-22 00:16 | 39.18924 | -106.30233 | 11331 ft | 73 kts | 135° |
| 2026-04-22 00:17 | 39.18585 | -106.29750 | 11364 ft | 77 kts | 139° |
| 2026-04-22 00:17 | 39.18198 | -106.29222 | 11361 ft | 86 kts | 138° |
| 2026-04-22 00:17 | 39.17755 | -106.28654 | 11340 ft | 94 kts | 142° |
| 2026-04-22 00:17 | 39.17263 | -106.28052 | 11315 ft | 102 kts | 143° |
| 2026-04-22 00:18 | 39.16717 | -106.27417 | 11303 ft | 108 kts | 148° |
| 2026-04-22 00:18 | 39.16007 | -106.27184 | 11297 ft | 110 kts | 187° |
| 2026-04-22 00:18 | 39.15243 | -106.27372 | 11282 ft | 114 kts | 195° |
| 2026-04-22 00:18 | 39.14472 | -106.27622 | 11330 ft | 112 kts | 196° |
| 2026-04-22 00:19 | 39.13738 | -106.27899 | 11392 ft | 109 kts | 207° |
| 2026-04-22 00:19 | 39.13161 | -106.28510 | 11467 ft | 108 kts | 223° |
| 2026-04-22 00:19 | 39.12647 | -106.29171 | 11581 ft | 102 kts | 223° |
| 2026-04-22 00:19 | 39.12155 | -106.29801 | 11697 ft | 97 kts | 222° |
| 2026-04-22 00:20 | 39.11679 | -106.30389 | 11782 ft | 93 kts | 220° |
| 2026-04-22 00:20 | 39.11211 | -106.30960 | 11847 ft | 93 kts | 220° |
| 2026-04-22 00:20 | 39.10743 | -106.31519 | 11916 ft | 92 kts | 220° |
| 2026-04-22 00:20 | 39.10278 | -106.32071 | 11983 ft | 91 kts | 219° |
| 2026-04-22 00:21 | 39.09815 | -106.32616 | 12055 ft | 90 kts | 219° |
| 2026-04-22 00:21 | 39.09352 | -106.33150 | 12126 ft | 89 kts | 216° |
| 2026-04-22 00:21 | 39.08842 | -106.33592 | 12200 ft | 87 kts | 206° |
| 2026-04-22 00:21 | 39.08316 | -106.33974 | 12259 ft | 87 kts | 206° |
| 2026-04-22 00:22 | 39.07818 | -106.34417 | 12323 ft | 88 kts | 216° |
| 2026-04-22 00:22 | 39.07404 | -106.34983 | 12373 ft | 90 kts | 238° |
| 2026-04-22 00:22 | 39.07314 | -106.35793 | 12430 ft | 96 kts | 268° |
| 2026-04-22 00:22 | 39.07416 | -106.36639 | 12498 ft | 95 kts | 270° |
| 2026-04-22 00:23 | 39.07347 | -106.37455 | 12573 ft | 91 kts | 251° |
| 2026-04-22 00:23 | 39.07208 | -106.38250 | 12642 ft | 90 kts | 251° |
| 2026-04-22 00:23 | 39.07095 | -106.39037 | 12705 ft | 90 kts | 254° |
| 2026-04-22 00:23 | 39.07013 | -106.39830 | 12771 ft | 90 kts | 257° |
| 2026-04-22 00:24 | 39.06946 | -106.40622 | 12836 ft | 89 kts | 257° |
| 2026-04-22 00:24 | 39.06881 | -106.41404 | 12900 ft | 88 kts | 257° |
| 2026-04-22 00:24 | 39.06814 | -106.42180 | 12965 ft | 87 kts | 256° |
| 2026-04-22 00:24 | 39.06895 | -106.42964 | 13027 ft | 90 kts | 277° |
| 2026-04-22 00:25 | 39.07028 | -106.43746 | 13099 ft | 88 kts | 271° |
| 2026-04-22 00:25 | 39.07086 | -106.44555 | 13102 ft | 95 kts | 266° |
| 2026-04-22 00:25 | 39.07093 | -106.45427 | 13101 ft | 101 kts | 264° |
| 2026-04-22 00:25 | 39.07065 | -106.46350 | 13102 ft | 107 kts | 263° |
| 2026-04-22 00:26 | 39.07007 | -106.47322 | 13097 ft | 111 kts | 262° |
| 2026-04-22 00:26 | 39.06929 | -106.48330 | 13096 ft | 116 kts | 262° |
| 2026-04-22 00:26 | 39.06833 | -106.49381 | 13091 ft | 121 kts | 262° |
| 2026-04-22 00:26 | 39.06934 | -106.50470 | 13096 ft | 125 kts | 286° |
| 2026-04-22 00:27 | 39.07196 | -106.51547 | 13086 ft | 128 kts | 286° |
| 2026-04-22 00:27 | 39.07443 | -106.52645 | 13084 ft | 128 kts | 284° |
| 2026-04-22 00:27 | 39.07804 | -106.53694 | 13081 ft | 130 kts | 300° |
| 2026-04-22 00:27 | 39.08405 | -106.54568 | 13085 ft | 131 kts | 314° |
| 2026-04-22 00:28 | 39.09050 | -106.55395 | 13084 ft | 132 kts | 315° |
| 2026-04-22 00:28 | 39.09701 | -106.56220 | 13078 ft | 132 kts | 314° |
| 2026-04-22 00:28 | 39.10357 | -106.57054 | 13088 ft | 132 kts | 315° |
| 2026-04-22 00:28 | 39.10826 | -106.58037 | 13047 ft | 130 kts | 284° |
| 2026-04-22 00:29 | 39.10918 | -106.59172 | 13067 ft | 128 kts | 272° |
| 2026-04-22 00:29 | 39.10936 | -106.60313 | 13076 ft | 129 kts | 271° |
| 2026-04-22 00:29 | 39.11081 | -106.61449 | 13072 ft | 131 kts | 291° |
| 2026-04-22 00:29 | 39.11440 | -106.62536 | 13057 ft | 132 kts | 294° |
| 2026-04-22 00:30 | 39.11816 | -106.63610 | 13043 ft | 131 kts | 294° |
| 2026-04-22 00:30 | 39.12083 | -106.64727 | 13037 ft | 129 kts | 284° |
| 2026-04-22 00:30 | 39.12207 | -106.65855 | 13030 ft | 128 kts | 274° |
| 2026-04-22 00:30 | 39.12266 | -106.67021 | 12941 ft | 133 kts | 272° |
| 2026-04-22 00:31 | 39.12076 | -106.68193 | 12826 ft | 136 kts | 249° |
| 2026-04-22 00:31 | 39.11676 | -106.69296 | 12744 ft | 137 kts | 244° |
| 2026-04-22 00:31 | 39.11445 | -106.70461 | 12670 ft | 137 kts | 269° |
| 2026-04-22 00:31 | 39.11594 | -106.71666 | 12594 ft | 138 kts | 287° |
| 2026-04-22 00:32 | 39.11986 | -106.72802 | 12515 ft | 139 kts | 297° |
| 2026-04-22 00:32 | 39.12441 | -106.73904 | 12437 ft | 140 kts | 298° |
| 2026-04-22 00:32 | 39.13038 | -106.74890 | 12365 ft | 142 kts | 316° |
| 2026-04-22 00:32 | 39.13768 | -106.75743 | 12290 ft | 143 kts | 318° |
| 2026-04-22 00:33 | 39.14507 | -106.76589 | 12212 ft | 143 kts | 319° |
| 2026-04-22 00:33 | 39.15237 | -106.77451 | 12134 ft | 143 kts | 317° |
| 2026-04-22 00:33 | 39.15975 | -106.78292 | 12055 ft | 142 kts | 319° |
| 2026-04-22 00:33 | 39.16648 | -106.79218 | 11956 ft | 141 kts | 306° |
| 2026-04-22 00:34 | 39.17135 | -106.80252 | 11955 ft | 128 kts | 300° |
| 2026-04-22 00:34 | 39.17559 | -106.81184 | 11955 ft | 115 kts | 300° |
| 2026-04-22 00:34 | 39.17934 | -106.82048 | 11958 ft | 108 kts | 297° |
| 2026-04-22 00:34 | 39.18308 | -106.82894 | 11963 ft | 110 kts | 299° |
| 2026-04-22 00:35 | 39.18696 | -106.83751 | 11964 ft | 111 kts | 298° |
| 2026-04-22 00:35 | 39.19095 | -106.84614 | 11959 ft | 114 kts | 298° |
| 2026-04-22 00:35 | 39.19502 | -106.85504 | 11960 ft | 115 kts | 298° |
| 2026-04-22 00:35 | 39.19905 | -106.86405 | 11965 ft | 116 kts | 299° |
| 2026-04-22 00:36 | 39.20305 | -106.87309 | 11965 ft | 117 kts | 299° |
| 2026-04-22 00:36 | 39.20730 | -106.88203 | 11957 ft | 118 kts | 308° |
| 2026-04-22 00:36 | 39.21332 | -106.88923 | 11951 ft | 119 kts | 320° |
| 2026-04-22 00:36 | 39.21967 | -106.89621 | 11945 ft | 120 kts | 319° |
| 2026-04-22 00:37 | 39.22613 | -106.90303 | 11936 ft | 121 kts | 319° |
| 2026-04-22 00:37 | 39.23266 | -106.90995 | 11929 ft | 121 kts | 319° |
| 2026-04-22 00:37 | 39.23999 | -106.91512 | 11934 ft | 122 kts | 343° |
| 2026-04-22 00:37 | 39.24831 | -106.91753 | 11931 ft | 123 kts | 348° |
| 2026-04-22 00:38 | 39.25672 | -106.91963 | 11939 ft | 123 kts | 347° |
| 2026-04-22 00:38 | 39.26514 | -106.92172 | 11939 ft | 124 kts | 346° |
| 2026-04-22 00:38 | 39.27358 | -106.92380 | 11944 ft | 124 kts | 348° |
| 2026-04-22 00:38 | 39.28206 | -106.92593 | 11946 ft | 124 kts | 348° |
| 2026-04-22 00:39 | 39.29061 | -106.92807 | 11945 ft | 125 kts | 346° |
| 2026-04-22 00:39 | 39.29912 | -106.93020 | 11944 ft | 125 kts | 347° |
| 2026-04-22 00:39 | 39.30768 | -106.93234 | 11940 ft | 125 kts | 349° |
| 2026-04-22 00:39 | 39.31621 | -106.93455 | 11933 ft | 125 kts | 345° |
| 2026-04-22 00:40 | 39.32377 | -106.93987 | 11927 ft | 123 kts | 320° |
| 2026-04-22 00:40 | 39.32978 | -106.94754 | 11928 ft | 121 kts | 309° |
| 2026-04-22 00:40 | 39.33469 | -106.95631 | 11915 ft | 122 kts | 301° |
| 2026-04-22 00:40 | 39.33894 | -106.96609 | 11860 ft | 125 kts | 296° |
| 2026-04-22 00:41 | 39.34258 | -106.97622 | 11817 ft | 126 kts | 293° |
| 2026-04-22 00:41 | 39.34616 | -106.98685 | 11706 ft | 132 kts | 293° |
| 2026-04-22 00:41 | 39.35011 | -106.99748 | 11590 ft | 130 kts | 298° |
| 2026-04-22 00:41 | 39.35442 | -107.00770 | 11469 ft | 129 kts | 300° |
| 2026-04-22 00:42 | 39.35895 | -107.01756 | 11344 ft | 128 kts | 301° |
| 2026-04-22 00:42 | 39.36371 | -107.02718 | 11223 ft | 128 kts | 303° |
| 2026-04-22 00:42 | 39.36876 | -107.03659 | 11100 ft | 127 kts | 304° |
| 2026-04-22 00:42 | 39.37371 | -107.04578 | 11064 ft | 120 kts | 304° |
| 2026-04-22 00:43 | 39.37834 | -107.05435 | 11071 ft | 113 kts | 304° |
| 2026-04-22 00:43 | 39.38267 | -107.06247 | 11076 ft | 108 kts | 303° |
| 2026-04-22 00:43 | 39.38681 | -107.07030 | 11084 ft | 104 kts | 302° |
| 2026-04-22 00:43 | 39.39082 | -107.07791 | 11080 ft | 101 kts | 301° |
| 2026-04-22 00:44 | 39.39477 | -107.08538 | 11072 ft | 100 kts | 301° |
| 2026-04-22 00:44 | 39.39869 | -107.09270 | 11063 ft | 98 kts | 301° |
| 2026-04-22 00:44 | 39.40251 | -107.09984 | 11059 ft | 96 kts | 301° |
| 2026-04-22 00:44 | 39.40625 | -107.10685 | 11049 ft | 94 kts | 301° |
| 2026-04-22 00:45 | 39.40962 | -107.11414 | 11052 ft | 96 kts | 294° |
| 2026-04-22 00:45 | 39.41259 | -107.12215 | 11047 ft | 102 kts | 290° |
| 2026-04-22 00:45 | 39.41532 | -107.13084 | 11037 ft | 107 kts | 286° |
| 2026-04-22 00:45 | 39.41551 | -107.14049 | 11046 ft | 110 kts | 269° |
| 2026-04-22 00:46 | 39.41653 | -107.15056 | 11043 ft | 115 kts | 275° |
| 2026-04-22 00:46 | 39.41752 | -107.16096 | 11042 ft | 118 kts | 274° |
| 2026-04-22 00:46 | 39.41750 | -107.17161 | 11054 ft | 119 kts | 267° |
| 2026-04-22 00:46 | 39.41713 | -107.18227 | 11073 ft | 119 kts | 268° |
| 2026-04-22 00:47 | 39.41671 | -107.19281 | 11089 ft | 118 kts | 268° |
| 2026-04-22 00:47 | 39.41819 | -107.20305 | 11102 ft | 120 kts | 295° |
| 2026-04-22 00:47 | 39.42258 | -107.21236 | 11088 ft | 123 kts | 301° |
| 2026-04-22 00:47 | 39.42739 | -107.22175 | 11071 ft | 125 kts | 302° |
| 2026-04-22 00:48 | 39.43222 | -107.23113 | 11069 ft | 126 kts | 301° |
| 2026-04-22 00:48 | 39.43715 | -107.24060 | 11063 ft | 128 kts | 301° |
| 2026-04-22 00:48 | 39.44214 | -107.25015 | 11068 ft | 129 kts | 302° |
| 2026-04-22 00:48 | 39.44709 | -107.25981 | 11084 ft | 129 kts | 302° |
| 2026-04-22 00:49 | 39.45199 | -107.26948 | 11087 ft | 129 kts | 302° |
| 2026-04-22 00:49 | 39.45688 | -107.27910 | 11079 ft | 127 kts | 302° |
| 2026-04-22 00:49 | 39.46171 | -107.28865 | 11077 ft | 125 kts | 302° |
| 2026-04-22 00:49 | 39.46657 | -107.29781 | 11077 ft | 124 kts | 306° |
| 2026-04-22 00:50 | 39.47250 | -107.30593 | 11069 ft | 125 kts | 316° |
| 2026-04-22 00:50 | 39.47929 | -107.31293 | 11064 ft | 125 kts | 323° |
| 2026-04-22 00:50 | 39.48661 | -107.31901 | 11065 ft | 125 kts | 328° |
| 2026-04-22 00:50 | 39.49487 | -107.32256 | 11067 ft | 128 kts | 358° |
| 2026-04-22 00:51 | 39.50372 | -107.32273 | 11059 ft | 128 kts | 355° |
| 2026-04-22 00:51 | 39.51262 | -107.32400 | 11051 ft | 128 kts | 350° |
| 2026-04-22 00:51 | 39.52143 | -107.32594 | 11043 ft | 129 kts | 348° |
| 2026-04-22 00:51 | 39.53017 | -107.32834 | 11047 ft | 128 kts | 346° |
| 2026-04-22 00:52 | 39.53878 | -107.33106 | 11056 ft | 128 kts | 345° |
| 2026-04-22 00:52 | 39.54725 | -107.33427 | 11066 ft | 128 kts | 350° |
| 2026-04-22 00:52 | 39.55601 | -107.33331 | 11065 ft | 130 kts | 24° |
| 2026-04-22 00:52 | 39.56343 | -107.32679 | 11063 ft | 130 kts | 44° |
| 2026-04-22 00:53 | 39.56982 | -107.31833 | 11055 ft | 131 kts | 50° |
| 2026-04-22 00:53 | 39.57596 | -107.30964 | 11053 ft | 132 kts | 50° |
| 2026-04-22 00:53 | 39.58033 | -107.29951 | 11059 ft | 129 kts | 77° |
| 2026-04-22 00:53 | 39.58256 | -107.28819 | 11052 ft | 129 kts | 81° |
| 2026-04-22 00:54 | 39.58463 | -107.27688 | 11048 ft | 130 kts | 80° |
| 2026-04-22 00:54 | 39.58671 | -107.26558 | 11050 ft | 129 kts | 81° |
| 2026-04-22 00:54 | 39.58877 | -107.25431 | 11056 ft | 129 kts | 81° |
| 2026-04-22 00:54 | 39.59084 | -107.24301 | 11068 ft | 128 kts | 80° |
| 2026-04-22 00:55 | 39.59443 | -107.23242 | 11060 ft | 130 kts | 61° |
| 2026-04-22 00:55 | 39.59939 | -107.22266 | 11069 ft | 130 kts | 59° |
| 2026-04-22 00:55 | 39.60944 | -107.20339 | 11080 ft | 129 kts | 59° |
| 2026-04-22 00:56 | 39.61444 | -107.19377 | 11077 ft | 129 kts | 58° |
| 2026-04-22 00:56 | 39.61940 | -107.18410 | 11077 ft | 129 kts | 59° |
| 2026-04-22 00:56 | 39.62442 | -107.17431 | 11066 ft | 130 kts | 59° |
| 2026-04-22 00:56 | 39.62943 | -107.16456 | 11054 ft | 131 kts | 59° |
| 2026-04-22 00:57 | 39.63447 | -107.15480 | 11047 ft | 131 kts | 58° |
| 2026-04-22 00:57 | 39.63951 | -107.14505 | 11040 ft | 131 kts | 58° |
| 2026-04-22 00:57 | 39.64459 | -107.13528 | 11036 ft | 131 kts | 58° |
| 2026-04-22 00:57 | 39.64965 | -107.12551 | 11034 ft | 130 kts | 58° |
| 2026-04-22 00:58 | 39.65469 | -107.11577 | 11032 ft | 130 kts | 58° |
| 2026-04-22 00:58 | 39.65916 | -107.10561 | 11039 ft | 129 kts | 72° |
| 2026-04-22 00:58 | 39.66187 | -107.09463 | 11047 ft | 128 kts | 76° |
| 2026-04-22 00:58 | 39.66443 | -107.08357 | 11045 ft | 128 kts | 76° |
| 2026-04-22 00:59 | 39.66698 | -107.07255 | 11041 ft | 128 kts | 76° |
| 2026-04-22 00:59 | 39.66957 | -107.06157 | 11036 ft | 128 kts | 76° |
| 2026-04-22 00:59 | 39.67184 | -107.05056 | 11033 ft | 126 kts | 87° |
| 2026-04-22 00:59 | 39.67238 | -107.03930 | 11032 ft | 125 kts | 92° |
| 2026-04-22 01:00 | 39.67270 | -107.02793 | 11029 ft | 126 kts | 91° |
| 2026-04-22 01:00 | 39.67292 | -107.01663 | 11024 ft | 126 kts | 92° |
| 2026-04-22 01:00 | 39.67312 | -107.00514 | 11016 ft | 127 kts | 92° |
| 2026-04-22 01:00 | 39.67337 | -106.99371 | 11012 ft | 127 kts | 91° |
| 2026-04-22 01:01 | 39.67359 | -106.98227 | 11013 ft | 127 kts | 91° |
| 2026-04-22 01:01 | 39.67379 | -106.97073 | 11005 ft | 128 kts | 92° |
| 2026-04-22 01:01 | 39.67401 | -106.95920 | 11004 ft | 128 kts | 92° |
| 2026-04-22 01:01 | 39.67426 | -106.94760 | 11007 ft | 128 kts | 91° |
| 2026-04-22 01:02 | 39.67452 | -106.93611 | 11009 ft | 128 kts | 91° |
| 2026-04-22 01:02 | 39.67484 | -106.92462 | 11012 ft | 128 kts | 91° |
| 2026-04-22 01:02 | 39.67516 | -106.91310 | 11014 ft | 128 kts | 91° |
| 2026-04-22 01:02 | 39.67551 | -106.90156 | 11019 ft | 128 kts | 91° |
| 2026-04-22 01:03 | 39.67586 | -106.89007 | 11021 ft | 128 kts | 91° |
| 2026-04-22 01:03 | 39.67618 | -106.87857 | 11022 ft | 128 kts | 90° |
| 2026-04-22 01:03 | 39.67649 | -106.86702 | 11023 ft | 128 kts | 91° |
| 2026-04-22 01:03 | 39.67680 | -106.85553 | 11021 ft | 128 kts | 90° |
| 2026-04-22 01:04 | 39.67712 | -106.84405 | 11017 ft | 128 kts | 90° |
| 2026-04-22 01:04 | 39.67614 | -106.83282 | 11022 ft | 125 kts | 116° |
| 2026-04-22 01:04 | 39.67211 | -106.82289 | 11025 ft | 125 kts | 123° |
| 2026-04-22 01:04 | 39.66769 | -106.81322 | 11023 ft | 125 kts | 125° |
| 2026-04-22 01:05 | 39.66325 | -106.80356 | 11030 ft | 125 kts | 124° |
| 2026-04-22 01:05 | 39.65881 | -106.79385 | 11041 ft | 125 kts | 124° |
| 2026-04-22 01:05 | 39.65496 | -106.78373 | 11036 ft | 126 kts | 117° |
| 2026-04-22 01:05 | 39.65210 | -106.77293 | 11037 ft | 127 kts | 110° |
| 2026-04-22 01:06 | 39.65012 | -106.76182 | 11043 ft | 127 kts | 104° |
| 2026-04-22 01:06 | 39.64878 | -106.75052 | 11046 ft | 127 kts | 101° |
| 2026-04-22 01:06 | 39.64788 | -106.73917 | 11055 ft | 127 kts | 98° |
| 2026-04-22 01:06 | 39.64733 | -106.72780 | 11062 ft | 127 kts | 96° |
| 2026-04-22 01:07 | 39.64702 | -106.71627 | 11071 ft | 127 kts | 95° |
| 2026-04-22 01:07 | 39.64686 | -106.70482 | 11069 ft | 128 kts | 94° |
| 2026-04-22 01:07 | 39.64683 | -106.69329 | 11069 ft | 128 kts | 93° |
| 2026-04-22 01:07 | 39.64688 | -106.68174 | 11073 ft | 129 kts | 92° |
| 2026-04-22 01:08 | 39.64699 | -106.67016 | 11080 ft | 129 kts | 92° |
| 2026-04-22 01:08 | 39.64713 | -106.65863 | 11087 ft | 128 kts | 91° |
| 2026-04-22 01:08 | 39.64731 | -106.64713 | 11100 ft | 128 kts | 91° |
| 2026-04-22 01:08 | 39.64752 | -106.63549 | 11101 ft | 129 kts | 91° |
| 2026-04-22 01:09 | 39.64774 | -106.62393 | 11101 ft | 129 kts | 91° |
| 2026-04-22 01:09 | 39.64800 | -106.61231 | 11102 ft | 129 kts | 90° |
| 2026-04-22 01:09 | 39.64820 | -106.60069 | 11102 ft | 130 kts | 92° |
| 2026-04-22 01:09 | 39.64760 | -106.58901 | 11102 ft | 130 kts | 99° |
| 2026-04-22 01:10 | 39.64613 | -106.57752 | 11100 ft | 130 kts | 104° |
| 2026-04-22 01:10 | 39.64415 | -106.56616 | 11094 ft | 130 kts | 107° |
| 2026-04-22 01:10 | 39.64196 | -106.55476 | 11087 ft | 130 kts | 107° |
| 2026-04-22 01:10 | 39.63975 | -106.54344 | 11079 ft | 130 kts | 107° |
| 2026-04-22 01:11 | 39.63754 | -106.53216 | 11075 ft | 130 kts | 108° |
| 2026-04-22 01:11 | 39.63533 | -106.52090 | 11075 ft | 130 kts | 108° |
| 2026-04-22 01:11 | 39.63311 | -106.50964 | 11092 ft | 129 kts | 108° |
| 2026-04-22 01:11 | 39.63088 | -106.49837 | 11099 ft | 129 kts | 107° |
| 2026-04-22 01:12 | 39.62867 | -106.48712 | 11100 ft | 129 kts | 107° |
| 2026-04-22 01:12 | 39.62642 | -106.47581 | 11101 ft | 129 kts | 108° |
| 2026-04-22 01:12 | 39.62393 | -106.46471 | 11098 ft | 128 kts | 114° |
| 2026-04-22 01:12 | 39.62002 | -106.45437 | 11101 ft | 128 kts | 123° |
| 2026-04-22 01:13 | 39.61524 | -106.44473 | 11100 ft | 128 kts | 127° |
| 2026-04-22 01:13 | 39.61030 | -106.43523 | 11104 ft | 127 kts | 128° |
| 2026-04-22 01:13 | 39.60533 | -106.42572 | 11110 ft | 128 kts | 127° |
| 2026-04-22 01:13 | 39.60036 | -106.41617 | 11108 ft | 128 kts | 128° |
| 2026-04-22 01:14 | 39.59537 | -106.40656 | 11118 ft | 128 kts | 128° |
| 2026-04-22 01:14 | 39.59042 | -106.39702 | 11113 ft | 128 kts | 128° |
| 2026-04-22 01:14 | 39.58551 | -106.38751 | 11114 ft | 127 kts | 128° |
| 2026-04-22 01:14 | 39.58063 | -106.37803 | 11105 ft | 127 kts | 128° |
| 2026-04-22 01:15 | 39.57448 | -106.37053 | 11124 ft | 121 kts | 161° |
| 2026-04-22 01:15 | 39.56666 | -106.36843 | 11251 ft | 103 kts | 191° |
| 2026-04-22 01:15 | 39.56002 | -106.37110 | 11281 ft | 100 kts | 205° |
| 2026-04-22 01:15 | 39.55337 | -106.37471 | 11174 ft | 115 kts | 207° |
| 2026-04-22 01:16 | 39.54616 | -106.37828 | 11216 ft | 113 kts | 202° |
| 2026-04-22 01:16 | 39.53776 | -106.37877 | 11148 ft | 122 kts | 176° |
| 2026-04-22 01:16 | 39.53000 | -106.37692 | 11253 ft | 115 kts | 173° |
| 2026-04-22 01:16 | 39.52178 | -106.37864 | 11144 ft | 120 kts | 205° |
| 2026-04-22 01:17 | 39.51445 | -106.38168 | 11266 ft | 113 kts | 195° |
| 2026-04-22 01:17 | 39.50638 | -106.38202 | 11225 ft | 120 kts | 179° |
| 2026-04-22 01:17 | 39.49794 | -106.37975 | 11145 ft | 126 kts | 166° |
| 2026-04-22 01:17 | 39.48955 | -106.37537 | 11013 ft | 134 kts | 159° |
| 2026-04-22 01:18 | 39.48113 | -106.36997 | 10860 ft | 138 kts | 157° |
| 2026-04-22 01:18 | 39.47266 | -106.36405 | 10720 ft | 140 kts | 154° |
| 2026-04-22 01:18 | 39.46516 | -106.35576 | 10562 ft | 142 kts | 136° |
| 2026-04-22 01:18 | 39.45964 | -106.34582 | 10605 ft | 130 kts | 134° |
| 2026-04-22 01:19 | 39.45359 | -106.33753 | 10570 ft | 128 kts | 139° |
| 2026-04-22 01:19 | 39.44707 | -106.33007 | 10605 ft | 123 kts | 148° |
| 2026-04-22 01:19 | 39.43985 | -106.32386 | 10644 ft | 121 kts | 154° |
| 2026-04-22 01:19 | 39.43214 | -106.32064 | 10777 ft | 114 kts | 171° |
| 2026-04-22 01:20 | 39.42426 | -106.31898 | 10799 ft | 119 kts | 178° |
| 2026-04-22 01:20 | 39.41591 | -106.31754 | 10779 ft | 125 kts | 181° |
| 2026-04-22 01:20 | 39.40707 | -106.31742 | 10758 ft | 127 kts | 186° |
| 2026-04-22 01:20 | 39.39838 | -106.31758 | 10812 ft | 126 kts | 184° |
| 2026-04-22 01:21 | 39.38988 | -106.31738 | 10940 ft | 119 kts | 181° |
| 2026-04-22 01:21 | 39.38146 | -106.31634 | 10961 ft | 125 kts | 173° |
| 2026-04-22 01:21 | 39.37294 | -106.31412 | 11032 ft | 121 kts | 179° |
| 2026-04-22 01:21 | 39.36491 | -106.31522 | 11159 ft | 114 kts | 198° |
| 2026-04-22 01:22 | 39.35729 | -106.31755 | 11117 ft | 122 kts | 201° |
| 2026-04-22 01:22 | 39.34961 | -106.32247 | 11073 ft | 126 kts | 214° |
| 2026-04-22 01:22 | 39.34198 | -106.32801 | 11055 ft | 129 kts | 214° |
| 2026-04-22 01:22 | 39.33399 | -106.33337 | 11067 ft | 127 kts | 209° |
| 2026-04-22 01:23 | 39.32560 | -106.33798 | 10864 ft | 141 kts | 201° |
| 2026-04-22 01:23 | 39.31664 | -106.34187 | 10868 ft | 134 kts | 203° |
| 2026-04-22 01:23 | 39.30777 | -106.34580 | 10769 ft | 138 kts | 202° |
| 2026-04-22 01:23 | 39.29886 | -106.34932 | 10828 ft | 129 kts | 201° |
| 2026-04-22 01:24 | 39.29045 | -106.35259 | 10870 ft | 126 kts | 201° |
| 2026-04-22 01:24 | 39.28201 | -106.35523 | 10840 ft | 131 kts | 198° |
| 2026-04-22 01:24 | 39.27311 | -106.35786 | 10861 ft | 129 kts | 197° |
| 2026-04-22 01:24 | 39.26404 | -106.35983 | 10761 ft | 138 kts | 188° |
| 2026-04-22 01:25 | 39.25450 | -106.36042 | 10685 ft | 136 kts | 185° |
| 2026-04-22 01:25 | 39.24498 | -106.35970 | 10560 ft | 139 kts | 179° |
| 2026-04-22 01:25 | 39.23566 | -106.35850 | 10491 ft | 132 kts | 179° |
| 2026-04-22 01:25 | 39.22691 | -106.35721 | 10446 ft | 126 kts | 176° |
| 2026-04-22 01:26 | 39.21853 | -106.35586 | 10449 ft | 114 kts | 178° |
| 2026-04-22 01:26 | 39.21064 | -106.35432 | 10327 ft | 117 kts | 174° |
| 2026-04-22 01:26 | 39.20369 | -106.35239 | 10502 ft | 94 kts | 170° |
| 2026-04-22 01:26 | 39.19710 | -106.35025 | 10436 ft | 102 kts | 173° |
| 2026-04-22 01:27 | 39.19040 | -106.34709 | 10289 ft | 118 kts | 142° |
| 2026-04-22 01:27 | 39.18778 | -106.33736 | 10214 ft | 109 kts | 95° |
| 2026-04-22 01:27 | 39.18887 | -106.32939 | 10428 ft | 81 kts | 72° |
| 2026-04-22 01:27 | 39.19248 | -106.32348 | 10435 ft | 82 kts | 43° |
| 2026-04-22 01:28 | 39.19669 | -106.31851 | 10406 ft | 82 kts | 34° |
| 2026-04-22 01:28 | 39.20186 | -106.31485 | 10309 ft | 88 kts | 17° |
| 2026-04-22 01:28 | 39.20810 | -106.31396 | 10133 ft | 90 kts | 352° |
| 2026-04-22 01:28 | 39.21354 | -106.31519 | 10054 ft | 70 kts | 347° |
| 2026-04-22 01:29 | 39.21766 | -106.31610 | 10041 ft | 50 kts | 352° |
| 2026-04-22 01:29 | 39.21976 | -106.31644 | 10043 ft | 7 kts | 19° |
| 2026-04-22 01:29 | 39.22069 | -106.31660 | 10043 ft | 21 kts | 349° |
| 2026-04-22 01:29 | 39.22189 | -106.31674 | 10043 ft | 12 kts | 353° |
| 2026-04-22 01:30 | 39.22273 | -106.31640 | 10042 ft | 12 kts | 18° |
| 2026-04-22 01:30 | 39.22339 | -106.31617 | 10042 ft | 8 kts | 2° |
| 2026-04-22 01:30 | 39.22365 | -106.31618 | 10042 ft | 0 kts | 354° |